sensor_id;sensor_type;location;lat;lon;timestamp;pressure;altitude;pressure_sealevel;temperature
76713;BMP280;65640;43.154;25.658;2023-04-21T00:00:55;100181.06;;;12.05
76713;BMP280;65640;43.154;25.658;2023-04-21T00:03:21;100184.19;;;12.07
76713;BMP280;65640;43.154;25.658;2023-04-21T00:05:52;100177.38;;;12.06
76713;BMP280;65640;43.154;25.658;2023-04-21T00:08:18;100182.06;;;12.09
76713;BMP280;65640;43.154;25.658;2023-04-21T00:10:44;100169.22;;;12.08
76713;BMP280;65640;43.154;25.658;2023-04-21T00:13:10;100164.59;;;12.00
76713;BMP280;65640;43.154;25.658;2023-04-21T00:15:36;100166.31;;;11.91
76713;BMP280;65640;43.154;25.658;2023-04-21T00:18:02;100160.88;;;11.87
76713;BMP280;65640;43.154;25.658;2023-04-21T00:20:28;100169.72;;;11.91
76713;BMP280;65640;43.154;25.658;2023-04-21T00:22:55;100166.94;;;11.83
76713;BMP280;65640;43.154;25.658;2023-04-21T00:25:21;100164.91;;;11.80
76713;BMP280;65640;43.154;25.658;2023-04-21T00:27:47;100163.84;;;11.81
76713;BMP280;65640;43.154;25.658;2023-04-21T00:30:12;100161.69;;;11.83
76713;BMP280;65640;43.154;25.658;2023-04-21T00:32:38;100158.53;;;11.86
76713;BMP280;65640;43.154;25.658;2023-04-21T00:35:03;100158.81;;;11.84
76713;BMP280;65640;43.154;25.658;2023-04-21T00:37:29;100157.03;;;11.80
76713;BMP280;65640;43.154;25.658;2023-04-21T00:39:55;100160.72;;;11.79
76713;BMP280;65640;43.154;25.658;2023-04-21T00:42:20;100155.75;;;11.77
76713;BMP280;65640;43.154;25.658;2023-04-21T00:44:46;100161.38;;;11.70
76713;BMP280;65640;43.154;25.658;2023-04-21T00:47:11;100151.94;;;11.69
76713;BMP280;65640;43.154;25.658;2023-04-21T00:49:37;100152.56;;;11.61
76713;BMP280;65640;43.154;25.658;2023-04-21T00:52:04;100143.63;;;11.62
76713;BMP280;65640;43.154;25.658;2023-04-21T00:54:31;100142.66;;;11.58
76713;BMP280;65640;43.154;25.658;2023-04-21T00:56:56;100138.19;;;11.59
76713;BMP280;65640;43.154;25.658;2023-04-21T00:59:22;100139.94;;;11.63
76713;BMP280;65640;43.154;25.658;2023-04-21T01:01:48;100134.97;;;11.62
76713;BMP280;65640;43.154;25.658;2023-04-21T01:04:14;100139.25;;;11.58
76713;BMP280;65640;43.154;25.658;2023-04-21T01:06:40;100131.38;;;11.58
76713;BMP280;65640;43.154;25.658;2023-04-21T01:09:06;100133.22;;;11.57
76713;BMP280;65640;43.154;25.658;2023-04-21T01:11:31;100137.88;;;11.60
76713;BMP280;65640;43.154;25.658;2023-04-21T01:13:57;100134.28;;;11.56
76713;BMP280;65640;43.154;25.658;2023-04-21T01:16:23;100130.31;;;11.59
76713;BMP280;65640;43.154;25.658;2023-04-21T01:18:51;100133.13;;;11.62
76713;BMP280;65640;43.154;25.658;2023-04-21T01:21:20;100133.69;;;11.59
76713;BMP280;65640;43.154;25.658;2023-04-21T01:23:46;100126.13;;;11.58
76713;BMP280;65640;43.154;25.658;2023-04-21T01:26:11;100130.19;;;11.50
76713;BMP280;65640;43.154;25.658;2023-04-21T01:28:37;100131.78;;;11.46
76713;BMP280;65640;43.154;25.658;2023-04-21T01:31:03;100137.59;;;11.43
76713;BMP280;65640;43.154;25.658;2023-04-21T01:33:28;100138.66;;;11.42
76713;BMP280;65640;43.154;25.658;2023-04-21T01:35:54;100127.13;;;11.43
76713;BMP280;65640;43.154;25.658;2023-04-21T01:38:21;100122.88;;;11.47
76713;BMP280;65640;43.154;25.658;2023-04-21T01:40:49;100120.94;;;11.53
76713;BMP280;65640;43.154;25.658;2023-04-21T01:43:17;100121.16;;;11.56
76713;BMP280;65640;43.154;25.658;2023-04-21T01:45:42;100116.47;;;11.53
76713;BMP280;65640;43.154;25.658;2023-04-21T01:48:08;100115.34;;;11.59
76713;BMP280;65640;43.154;25.658;2023-04-21T01:50:33;100115.56;;;11.63
76713;BMP280;65640;43.154;25.658;2023-04-21T01:52:59;100114.78;;;11.62
76713;BMP280;65640;43.154;25.658;2023-04-21T01:55:25;100108.22;;;11.65
76713;BMP280;65640;43.154;25.658;2023-04-21T01:57:51;100103.16;;;11.68
76713;BMP280;65640;43.154;25.658;2023-04-21T02:00:16;100104.53;;;11.66
76713;BMP280;65640;43.154;25.658;2023-04-21T02:02:42;100100.53;;;11.68
76713;BMP280;65640;43.154;25.658;2023-04-21T02:05:07;100099.56;;;11.64
76713;BMP280;65640;43.154;25.658;2023-04-21T02:07:33;100097.16;;;11.49
76713;BMP280;65640;43.154;25.658;2023-04-21T02:09:58;100098.06;;;11.40
76713;BMP280;65640;43.154;25.658;2023-04-21T02:12:24;100095.25;;;11.31
76713;BMP280;65640;43.154;25.658;2023-04-21T02:14:49;100094.78;;;11.29
76713;BMP280;65640;43.154;25.658;2023-04-21T02:17:15;100091.09;;;11.30
76713;BMP280;65640;43.154;25.658;2023-04-21T02:19:41;100091.03;;;11.35
76713;BMP280;65640;43.154;25.658;2023-04-21T02:22:07;100089.19;;;11.36
76713;BMP280;65640;43.154;25.658;2023-04-21T02:24:33;100089.75;;;11.32
76713;BMP280;65640;43.154;25.658;2023-04-21T02:26:58;100101.47;;;11.40
76713;BMP280;65640;43.154;25.658;2023-04-21T02:29:24;100099.06;;;11.44
76713;BMP280;65640;43.154;25.658;2023-04-21T02:31:49;100090.19;;;11.40
76713;BMP280;65640;43.154;25.658;2023-04-21T02:34:15;100098.75;;;11.45
76713;BMP280;65640;43.154;25.658;2023-04-21T02:36:40;100089.28;;;11.49
76713;BMP280;65640;43.154;25.658;2023-04-21T02:39:05;100089.28;;;11.49
76713;BMP280;65640;43.154;25.658;2023-04-21T02:41:31;100082.28;;;11.45
76713;BMP280;65640;43.154;25.658;2023-04-21T02:43:56;100088.53;;;11.49
76713;BMP280;65640;43.154;25.658;2023-04-21T02:46:22;100081.91;;;11.51
76713;BMP280;65640;43.154;25.658;2023-04-21T02:48:47;100080.81;;;11.52
76713;BMP280;65640;43.154;25.658;2023-04-21T02:51:13;100077.75;;;11.50
76713;BMP280;65640;43.154;25.658;2023-04-21T02:53:40;100072.56;;;11.45
76713;BMP280;65640;43.154;25.658;2023-04-21T02:56:09;100078.16;;;11.39
76713;BMP280;65640;43.154;25.658;2023-04-21T02:58:35;100072.47;;;11.31
76713;BMP280;65640;43.154;25.658;2023-04-21T03:01:02;100081.38;;;11.30
76713;BMP280;65640;43.154;25.658;2023-04-21T03:03:28;100080.56;;;11.35
76713;BMP280;65640;43.154;25.658;2023-04-21T03:05:57;100080.75;;;11.39
76713;BMP280;65640;43.154;25.658;2023-04-21T03:08:23;100086.50;;;11.41
76713;BMP280;65640;43.154;25.658;2023-04-21T03:10:48;100084.00;;;11.30
76713;BMP280;65640;43.154;25.658;2023-04-21T03:13:14;100087.22;;;11.27
76713;BMP280;65640;43.154;25.658;2023-04-21T03:15:40;100095.38;;;11.26
76713;BMP280;65640;43.154;25.658;2023-04-21T03:18:05;100097.72;;;11.27
76713;BMP280;65640;43.154;25.658;2023-04-21T03:20:31;100098.06;;;11.21
76713;BMP280;65640;43.154;25.658;2023-04-21T03:22:56;100092.94;;;11.29
76713;BMP280;65640;43.154;25.658;2023-04-21T03:25:22;100097.34;;;11.34
76713;BMP280;65640;43.154;25.658;2023-04-21T03:27:47;100090.25;;;11.35
76713;BMP280;65640;43.154;25.658;2023-04-21T03:30:13;100103.72;;;11.28
76713;BMP280;65640;43.154;25.658;2023-04-21T03:32:38;100100.50;;;11.31
76713;BMP280;65640;43.154;25.658;2023-04-21T03:35:04;100103.13;;;11.31
76713;BMP280;65640;43.154;25.658;2023-04-21T03:37:29;100106.97;;;11.39
76713;BMP280;65640;43.154;25.658;2023-04-21T03:39:55;100100.47;;;11.36
76713;BMP280;65640;43.154;25.658;2023-04-21T03:42:21;100114.28;;;11.42
76713;BMP280;65640;43.154;25.658;2023-04-21T03:44:46;100108.50;;;11.45
76713;BMP280;65640;43.154;25.658;2023-04-21T03:47:11;100111.13;;;11.45
76713;BMP280;65640;43.154;25.658;2023-04-21T03:49:37;100116.63;;;11.43
76713;BMP280;65640;43.154;25.658;2023-04-21T03:52:02;100112.44;;;11.42
76713;BMP280;65640;43.154;25.658;2023-04-21T03:54:28;100120.31;;;11.42
76713;BMP280;65640;43.154;25.658;2023-04-21T03:56:53;100119.28;;;11.38
76713;BMP280;65640;43.154;25.658;2023-04-21T03:59:18;100123.91;;;11.46
76713;BMP280;65640;43.154;25.658;2023-04-21T04:01:44;100124.34;;;11.53
76713;BMP280;65640;43.154;25.658;2023-04-21T04:04:10;100136.00;;;11.66
76713;BMP280;65640;43.154;25.658;2023-04-21T04:06:35;100126.63;;;11.79
76713;BMP280;65640;43.154;25.658;2023-04-21T04:09:01;100133.59;;;11.88
76713;BMP280;65640;43.154;25.658;2023-04-21T04:11:31;100141.28;;;11.98
76713;BMP280;65640;43.154;25.658;2023-04-21T04:13:57;100145.25;;;11.96
76713;BMP280;65640;43.154;25.658;2023-04-21T04:16:23;100141.00;;;12.00
76713;BMP280;65640;43.154;25.658;2023-04-21T04:18:49;100142.41;;;12.11
76713;BMP280;65640;43.154;25.658;2023-04-21T04:21:15;100140.50;;;12.17
76713;BMP280;65640;43.154;25.658;2023-04-21T04:23:40;100146.94;;;12.24
76713;BMP280;65640;43.154;25.658;2023-04-21T04:26:06;100144.72;;;12.31
76713;BMP280;65640;43.154;25.658;2023-04-21T04:28:32;100147.78;;;12.38
76713;BMP280;65640;43.154;25.658;2023-04-21T04:30:58;100140.25;;;12.45
76713;BMP280;65640;43.154;25.658;2023-04-21T04:33:25;100134.94;;;12.50
76713;BMP280;65640;43.154;25.658;2023-04-21T04:35:50;100150.09;;;12.53
76713;BMP280;65640;43.154;25.658;2023-04-21T04:38:16;100149.63;;;12.51
76713;BMP280;65640;43.154;25.658;2023-04-21T04:40:42;100145.63;;;12.54
76713;BMP280;65640;43.154;25.658;2023-04-21T04:43:08;100146.06;;;12.61
76713;BMP280;65640;43.154;25.658;2023-04-21T04:45:35;100153.94;;;12.75
76713;BMP280;65640;43.154;25.658;2023-04-21T04:48:02;100152.38;;;12.87
76713;BMP280;65640;43.154;25.658;2023-04-21T04:50:28;100151.63;;;13.00
76713;BMP280;65640;43.154;25.658;2023-04-21T04:52:53;100151.44;;;12.97
76713;BMP280;65640;43.154;25.658;2023-04-21T04:55:20;100148.81;;;12.97
76713;BMP280;65640;43.154;25.658;2023-04-21T04:57:46;100147.63;;;13.17
76713;BMP280;65640;43.154;25.658;2023-04-21T05:00:12;100154.31;;;13.36
76713;BMP280;65640;43.154;25.658;2023-04-21T05:02:39;100150.91;;;13.50
76713;BMP280;65640;43.154;25.658;2023-04-21T05:05:05;100151.72;;;13.59
76713;BMP280;65640;43.154;25.658;2023-04-21T05:07:31;100155.78;;;13.65
76713;BMP280;65640;43.154;25.658;2023-04-21T05:09:57;100160.78;;;13.66
76713;BMP280;65640;43.154;25.658;2023-04-21T05:12:22;100161.88;;;13.52
76713;BMP280;65640;43.154;25.658;2023-04-21T05:14:47;100165.50;;;13.42
76713;BMP280;65640;43.154;25.658;2023-04-21T05:17:13;100169.09;;;13.32
76713;BMP280;65640;43.154;25.658;2023-04-21T05:19:38;100164.16;;;13.31
76713;BMP280;65640;43.154;25.658;2023-04-21T05:22:04;100170.38;;;13.35
76713;BMP280;65640;43.154;25.658;2023-04-21T05:24:32;100169.50;;;13.39
76713;BMP280;65640;43.154;25.658;2023-04-21T05:26:57;100171.25;;;13.44
76713;BMP280;65640;43.154;25.658;2023-04-21T05:29:22;100169.78;;;13.52
76713;BMP280;65640;43.154;25.658;2023-04-21T05:31:48;100168.81;;;13.48
76713;BMP280;65640;43.154;25.658;2023-04-21T05:34:13;100172.03;;;13.45
76713;BMP280;65640;43.154;25.658;2023-04-21T05:36:42;100175.44;;;13.45
76713;BMP280;65640;43.154;25.658;2023-04-21T05:39:08;100177.97;;;13.36
76713;BMP280;65640;43.154;25.658;2023-04-21T05:41:33;100178.41;;;13.30
76713;BMP280;65640;43.154;25.658;2023-04-21T05:43:59;100180.09;;;13.34
76713;BMP280;65640;43.154;25.658;2023-04-21T05:46:24;100174.84;;;13.34
76713;BMP280;65640;43.154;25.658;2023-04-21T05:48:50;100175.63;;;13.35
76713;BMP280;65640;43.154;25.658;2023-04-21T05:51:15;100182.25;;;13.46
76713;BMP280;65640;43.154;25.658;2023-04-21T05:53:42;100174.13;;;13.56
76713;BMP280;65640;43.154;25.658;2023-04-21T05:56:08;100182.78;;;13.70
76713;BMP280;65640;43.154;25.658;2023-04-21T05:58:34;100186.19;;;13.71
76713;BMP280;65640;43.154;25.658;2023-04-21T06:01:00;100183.50;;;13.84
76713;BMP280;65640;43.154;25.658;2023-04-21T06:03:26;100179.63;;;13.82
76713;BMP280;65640;43.154;25.658;2023-04-21T06:05:54;100188.25;;;13.96
76713;BMP280;65640;43.154;25.658;2023-04-21T06:08:21;100191.84;;;14.00
76713;BMP280;65640;43.154;25.658;2023-04-21T06:10:46;100189.94;;;13.92
76713;BMP280;65640;43.154;25.658;2023-04-21T06:13:11;100189.50;;;13.76
76713;BMP280;65640;43.154;25.658;2023-04-21T06:15:37;100194.94;;;13.80
76713;BMP280;65640;43.154;25.658;2023-04-21T06:18:02;100203.97;;;13.88
76713;BMP280;65640;43.154;25.658;2023-04-21T06:20:28;100204.75;;;13.88
76713;BMP280;65640;43.154;25.658;2023-04-21T06:22:53;100204.84;;;13.97
76713;BMP280;65640;43.154;25.658;2023-04-21T06:25:19;100198.13;;;13.91
76713;BMP280;65640;43.154;25.658;2023-04-21T06:27:44;100203.16;;;14.01
76713;BMP280;65640;43.154;25.658;2023-04-21T06:30:10;100201.28;;;14.23
76713;BMP280;65640;43.154;25.658;2023-04-21T06:32:36;100206.84;;;14.22
76713;BMP280;65640;43.154;25.658;2023-04-21T06:35:01;100216.03;;;14.24
76713;BMP280;65640;43.154;25.658;2023-04-21T06:37:27;100206.19;;;14.39
76713;BMP280;65640;43.154;25.658;2023-04-21T06:39:52;100215.59;;;14.31
76713;BMP280;65640;43.154;25.658;2023-04-21T06:42:18;100210.81;;;14.33
76713;BMP280;65640;43.154;25.658;2023-04-21T06:44:43;100215.66;;;14.40
76713;BMP280;65640;43.154;25.658;2023-04-21T06:47:09;100214.63;;;14.49
76713;BMP280;65640;43.154;25.658;2023-04-21T06:49:34;100218.59;;;14.69
76713;BMP280;65640;43.154;25.658;2023-04-21T06:52:01;100223.66;;;14.96
76713;BMP280;65640;43.154;25.658;2023-04-21T06:54:27;100225.00;;;14.77
76713;BMP280;65640;43.154;25.658;2023-04-21T06:56:52;100216.56;;;14.66
76713;BMP280;65640;43.154;25.658;2023-04-21T06:59:18;100229.84;;;14.83
76713;BMP280;65640;43.154;25.658;2023-04-21T07:01:43;100225.59;;;14.73
76713;BMP280;65640;43.154;25.658;2023-04-21T07:04:08;100224.00;;;14.64
76713;BMP280;65640;43.154;25.658;2023-04-21T07:06:34;100238.88;;;14.68
76713;BMP280;65640;43.154;25.658;2023-04-21T07:08:59;100231.03;;;14.46
76713;BMP280;65640;43.154;25.658;2023-04-21T07:11:25;100238.41;;;14.36
76713;BMP280;65640;43.154;25.658;2023-04-21T07:13:52;100244.19;;;14.24
76713;BMP280;65640;43.154;25.658;2023-04-21T07:16:18;100242.69;;;14.09
76713;BMP280;65640;43.154;25.658;2023-04-21T07:18:43;100244.66;;;14.04
76713;BMP280;65640;43.154;25.658;2023-04-21T07:21:09;100242.13;;;13.99
76713;BMP280;65640;43.154;25.658;2023-04-21T07:23:34;100242.69;;;14.09
76713;BMP280;65640;43.154;25.658;2023-04-21T07:26:00;100251.81;;;14.25
76713;BMP280;65640;43.154;25.658;2023-04-21T07:28:25;100245.25;;;14.37
76713;BMP280;65640;43.154;25.658;2023-04-21T07:30:50;100245.50;;;14.57
76713;BMP280;65640;43.154;25.658;2023-04-21T07:33:16;100246.09;;;14.77
76713;BMP280;65640;43.154;25.658;2023-04-21T07:35:42;100246.94;;;14.94
76713;BMP280;65640;43.154;25.658;2023-04-21T07:38:07;100250.56;;;14.76
76713;BMP280;65640;43.154;25.658;2023-04-21T07:40:33;100249.84;;;14.84
76713;BMP280;65640;43.154;25.658;2023-04-21T07:42:58;100267.53;;;14.84
76713;BMP280;65640;43.154;25.658;2023-04-21T07:45:24;100257.47;;;14.94
76713;BMP280;65640;43.154;25.658;2023-04-21T07:47:50;100253.78;;;14.95
76713;BMP280;65640;43.154;25.658;2023-04-21T07:50:16;100264.47;;;14.99
76713;BMP280;65640;43.154;25.658;2023-04-21T07:52:42;100257.84;;;15.01
76713;BMP280;65640;43.154;25.658;2023-04-21T07:55:07;100261.75;;;15.12
76713;BMP280;65640;43.154;25.658;2023-04-21T07:57:33;100268.88;;;15.12
76713;BMP280;65640;43.154;25.658;2023-04-21T08:00:06;100268.91;;;15.20
76713;BMP280;65640;43.154;25.658;2023-04-21T08:02:32;100272.50;;;15.25
76713;BMP280;65640;43.154;25.658;2023-04-21T08:04:57;100282.50;;;15.14
76713;BMP280;65640;43.154;25.658;2023-04-21T08:07:23;100280.00;;;15.00
76713;BMP280;65640;43.154;25.658;2023-04-21T08:09:48;100284.00;;;14.98
76713;BMP280;65640;43.154;25.658;2023-04-21T08:12:13;100278.94;;;15.01
76713;BMP280;65640;43.154;25.658;2023-04-21T08:14:39;100275.75;;;15.22
76713;BMP280;65640;43.154;25.658;2023-04-21T08:17:05;100282.13;;;15.38
76713;BMP280;65640;43.154;25.658;2023-04-21T08:19:30;100282.22;;;15.55
76713;BMP280;65640;43.154;25.658;2023-04-21T08:21:55;100285.75;;;15.50
76713;BMP280;65640;43.154;25.658;2023-04-21T08:24:22;100285.31;;;15.57
76713;BMP280;65640;43.154;25.658;2023-04-21T08:26:48;100281.69;;;15.44
76713;BMP280;65640;43.154;25.658;2023-04-21T08:29:13;100285.38;;;15.26
76713;BMP280;65640;43.154;25.658;2023-04-21T08:31:39;100286.03;;;15.40
76713;BMP280;65640;43.154;25.658;2023-04-21T08:34:04;100292.13;;;15.49
76713;BMP280;65640;43.154;25.658;2023-04-21T08:36:31;100284.94;;;15.33
76713;BMP280;65640;43.154;25.658;2023-04-21T08:38:57;100284.59;;;15.26
76713;BMP280;65640;43.154;25.658;2023-04-21T08:41:23;100285.84;;;15.37
76713;BMP280;65640;43.154;25.658;2023-04-21T08:43:49;100293.81;;;15.45
76713;BMP280;65640;43.154;25.658;2023-04-21T08:46:14;100293.97;;;15.49
76713;BMP280;65640;43.154;25.658;2023-04-21T08:48:40;100296.16;;;15.47
76713;BMP280;65640;43.154;25.658;2023-04-21T08:51:07;100293.75;;;15.37
76713;BMP280;65640;43.154;25.658;2023-04-21T08:53:36;100288.50;;;15.37
76713;BMP280;65640;43.154;25.658;2023-04-21T08:56:02;100291.13;;;15.37
76713;BMP280;65640;43.154;25.658;2023-04-21T08:58:28;100296.56;;;15.32
76713;BMP280;65640;43.154;25.658;2023-04-21T09:00:53;100289.53;;;15.18
76713;BMP280;65640;43.154;25.658;2023-04-21T09:03:23;100288.78;;;15.27
76713;BMP280;65640;43.154;25.658;2023-04-21T09:05:59;100289.81;;;15.08
76713;BMP280;65640;43.154;25.658;2023-04-21T09:08:25;100288.28;;;15.07
76713;BMP280;65640;43.154;25.658;2023-04-21T09:10:53;100287.44;;;14.98
76713;BMP280;65640;43.154;25.658;2023-04-21T09:13:18;100287.91;;;15.00
76713;BMP280;65640;43.154;25.658;2023-04-21T09:15:47;100289.13;;;14.94
76713;BMP280;65640;43.154;25.658;2023-04-21T09:18:17;100288.78;;;14.87
76713;BMP280;65640;43.154;25.658;2023-04-21T09:20:44;100298.72;;;14.90
76713;BMP280;65640;43.154;25.658;2023-04-21T09:23:11;100296.97;;;14.86
76713;BMP280;65640;43.154;25.658;2023-04-21T09:25:40;100297.16;;;14.89
76713;BMP280;65640;43.154;25.658;2023-04-21T09:28:07;100296.06;;;14.90
76713;BMP280;65640;43.154;25.658;2023-04-21T09:30:37;100291.88;;;14.89
76713;BMP280;65640;43.154;25.658;2023-04-21T09:33:03;100295.75;;;14.83
76713;BMP280;65640;43.154;25.658;2023-04-21T09:35:33;100293.09;;;14.83
76713;BMP280;65640;43.154;25.658;2023-04-21T09:38:00;100290.34;;;14.88
76713;BMP280;65640;43.154;25.658;2023-04-21T09:40:29;100292.19;;;14.88
76713;BMP280;65640;43.154;25.658;2023-04-21T09:42:54;100294.66;;;14.84
76713;BMP280;65640;43.154;25.658;2023-04-21T09:45:24;100288.91;;;14.91
76713;BMP280;65640;43.154;25.658;2023-04-21T09:47:54;100291.75;;;14.94
76713;BMP280;65640;43.154;25.658;2023-04-21T09:50:21;100292.22;;;14.96
76713;BMP280;65640;43.154;25.658;2023-04-21T09:52:49;100289.56;;;14.96
76713;BMP280;65640;43.154;25.658;2023-04-21T09:55:17;100292.28;;;15.05
76713;BMP280;65640;43.154;25.658;2023-04-21T09:57:43;100287.91;;;15.00
76713;BMP280;65640;43.154;25.658;2023-04-21T10:00:11;100273.47;;;14.98
76713;BMP280;65640;43.154;25.658;2023-04-21T10:02:48;100282.50;;;15.14
76713;BMP280;65640;43.154;25.658;2023-04-21T10:05:14;100277.47;;;15.26
76713;BMP280;65640;43.154;25.658;2023-04-21T10:07:40;100281.16;;;15.25
76713;BMP280;65640;43.154;25.658;2023-04-21T10:10:07;100283.66;;;15.22
76713;BMP280;65640;43.154;25.658;2023-04-21T10:12:33;100282.09;;;15.20
76713;BMP280;65640;43.154;25.658;2023-04-21T10:15:03;100283.78;;;15.16
76713;BMP280;65640;43.154;25.658;2023-04-21T10:17:33;100279.97;;;15.40
76713;BMP280;65640;43.154;25.658;2023-04-21T10:20:05;100277.25;;;15.62
76713;BMP280;65640;43.154;25.658;2023-04-21T10:22:32;100273.50;;;15.80
76713;BMP280;65640;43.154;25.658;2023-04-21T10:25:03;100282.41;;;15.93
76713;BMP280;65640;43.154;25.658;2023-04-21T10:27:36;100274.03;;;15.99
76713;BMP280;65640;43.154;25.658;2023-04-21T10:30:20;100269.03;;;16.06
76713;BMP280;65640;43.154;25.658;2023-04-21T10:32:46;100273.19;;;16.25
76713;BMP280;65640;43.154;25.658;2023-04-21T10:35:14;100265.44;;;16.45
76713;BMP280;65640;43.154;25.658;2023-04-21T10:37:41;100273.09;;;16.76
76713;BMP280;65640;43.154;25.658;2023-04-21T10:40:32;100265.22;;;16.97
76713;BMP280;65640;43.154;25.658;2023-04-21T10:42:57;100263.13;;;17.20
76713;BMP280;65640;43.154;25.658;2023-04-21T10:45:25;100264.94;;;17.28
76713;BMP280;65640;43.154;25.658;2023-04-21T10:47:51;100264.38;;;17.14
76713;BMP280;65640;43.154;25.658;2023-04-21T10:50:21;100261.06;;;17.46
76713;BMP280;65640;43.154;25.658;2023-04-21T10:53:07;100262.16;;;17.66
76713;BMP280;65640;43.154;25.658;2023-04-21T10:55:33;100269.72;;;17.96
76713;BMP280;65640;43.154;25.658;2023-04-21T10:58:07;100265.28;;;17.88
76713;BMP280;65640;43.154;25.658;2023-04-21T11:00:35;100253.31;;;18.03
76713;BMP280;65640;43.154;25.658;2023-04-21T11:03:05;100264.44;;;17.76
76713;BMP280;65640;43.154;25.658;2023-04-21T11:05:36;100256.50;;;17.34
76713;BMP280;65640;43.154;25.658;2023-04-21T11:08:13;100253.06;;;17.75
76713;BMP280;65640;43.154;25.658;2023-04-21T11:10:54;100255.41;;;18.10
76713;BMP280;65640;43.154;25.658;2023-04-21T11:13:25;100246.78;;;18.46
76713;BMP280;65640;43.154;25.658;2023-04-21T11:16:00;100242.84;;;18.19
76713;BMP280;65640;43.154;25.658;2023-04-21T11:18:35;100247.44;;;18.10
76713;BMP280;65640;43.154;25.658;2023-04-21T11:21:27;100251.06;;;18.05
76713;BMP280;65640;43.154;25.658;2023-04-21T11:23:55;100250.81;;;18.19
76713;BMP280;65640;43.154;25.658;2023-04-21T11:26:36;100240.59;;;18.09
76713;BMP280;65640;43.154;25.658;2023-04-21T11:29:07;100242.34;;;18.05
76713;BMP280;65640;43.154;25.658;2023-04-21T11:31:33;100242.75;;;18.15
76713;BMP280;65640;43.154;25.658;2023-04-21T11:33:59;100238.88;;;18.13
76713;BMP280;65640;43.154;25.658;2023-04-21T11:36:25;100240.34;;;18.34
76713;BMP280;65640;43.154;25.658;2023-04-21T11:38:51;100238.31;;;18.64
76713;BMP280;65640;43.154;25.658;2023-04-21T11:41:21;100226.78;;;18.84
76713;BMP280;65640;43.154;25.658;2023-04-21T11:43:47;100234.28;;;19.07
76713;BMP280;65640;43.154;25.658;2023-04-21T11:46:24;100236.84;;;19.03
76713;BMP280;65640;43.154;25.658;2023-04-21T11:49:03;100230.97;;;18.98
76713;BMP280;65640;43.154;25.658;2023-04-21T11:51:38;100234.72;;;18.97
76713;BMP280;65640;43.154;25.658;2023-04-21T11:54:06;100231.75;;;18.98
76713;BMP280;65640;43.154;25.658;2023-04-21T11:56:39;100229.88;;;18.62
76713;BMP280;65640;43.154;25.658;2023-04-21T11:59:09;100233.75;;;18.40
76713;BMP280;65640;43.154;25.658;2023-04-21T12:01:45;100229.41;;;18.24
76713;BMP280;65640;43.154;25.658;2023-04-21T12:04:19;100226.13;;;18.87
76713;BMP280;65640;43.154;25.658;2023-04-21T12:06:54;100229.72;;;19.31
76713;BMP280;65640;43.154;25.658;2023-04-21T12:09:20;100231.59;;;19.31
76713;BMP280;65640;43.154;25.658;2023-04-21T12:11:47;100230.19;;;18.97
76713;BMP280;65640;43.154;25.658;2023-04-21T12:14:14;100226.50;;;19.26
76713;BMP280;65640;43.154;25.658;2023-04-21T12:16:41;100224.22;;;19.00
76713;BMP280;65640;43.154;25.658;2023-04-21T12:19:06;100223.19;;;19.17
76713;BMP280;65640;43.154;25.658;2023-04-21T12:21:31;100222.09;;;19.06
76713;BMP280;65640;43.154;25.658;2023-04-21T12:23:57;100212.13;;;19.27
76713;BMP280;65640;43.154;25.658;2023-04-21T12:26:22;100213.50;;;19.49
76713;BMP280;65640;43.154;25.658;2023-04-21T12:28:51;100207.97;;;19.54
76713;BMP280;65640;43.154;25.658;2023-04-21T12:31:17;100203.66;;;19.49
76713;BMP280;65640;43.154;25.658;2023-04-21T12:33:42;100213.88;;;19.35
76713;BMP280;65640;43.154;25.658;2023-04-21T12:36:08;100210.38;;;19.19
76713;BMP280;65640;43.154;25.658;2023-04-21T12:38:34;100209.47;;;19.55
76713;BMP280;65640;43.154;25.658;2023-04-21T12:40:59;100203.19;;;19.47
76713;BMP280;65640;43.154;25.658;2023-04-21T12:43:25;100216.56;;;19.23
76713;BMP280;65640;43.154;25.658;2023-04-21T12:45:50;100212.38;;;18.98
76713;BMP280;65640;43.154;25.658;2023-04-21T12:48:17;100212.50;;;19.13
76713;BMP280;65640;43.154;25.658;2023-04-21T12:50:43;100218.81;;;19.09
76713;BMP280;65640;43.154;25.658;2023-04-21T12:53:09;100220.13;;;19.03
76713;BMP280;65640;43.154;25.658;2023-04-21T12:55:35;100216.81;;;18.93
76713;BMP280;65640;43.154;25.658;2023-04-21T12:58:01;100216.97;;;18.73
76713;BMP280;65640;43.154;25.658;2023-04-21T13:00:26;100217.16;;;18.92
76713;BMP280;65640;43.154;25.658;2023-04-21T13:02:52;100234.31;;;18.82
76713;BMP280;65640;43.154;25.658;2023-04-21T13:05:18;100230.13;;;18.45
76713;BMP280;65640;43.154;25.658;2023-04-21T13:07:44;100223.13;;;17.95
76713;BMP280;65640;43.154;25.658;2023-04-21T13:10:10;100227.50;;;17.38
76713;BMP280;65640;43.154;25.658;2023-04-21T13:12:36;100227.72;;;17.03
76713;BMP280;65640;43.154;25.658;2023-04-21T13:15:01;100229.00;;;16.68
76713;BMP280;65640;43.154;25.658;2023-04-21T13:17:27;100235.84;;;16.52
76713;BMP280;65640;43.154;25.658;2023-04-21T13:19:53;100244.88;;;16.51
76713;BMP280;65640;43.154;25.658;2023-04-21T13:22:18;100233.81;;;16.66
76713;BMP280;65640;43.154;25.658;2023-04-21T13:24:44;100236.69;;;16.82
76713;BMP280;65640;43.154;25.658;2023-04-21T13:27:09;100234.75;;;16.99
76713;BMP280;65640;43.154;25.658;2023-04-21T13:29:35;100228.81;;;17.02
76713;BMP280;65640;43.154;25.658;2023-04-21T13:32:05;100240.56;;;17.14
76713;BMP280;65640;43.154;25.658;2023-04-21T13:34:32;100237.22;;;17.05
76713;BMP280;65640;43.154;25.658;2023-04-21T13:36:58;100236.56;;;17.08
76713;BMP280;65640;43.154;25.658;2023-04-21T13:39:23;100229.22;;;17.13
76713;BMP280;65640;43.154;25.658;2023-04-21T13:41:49;100229.09;;;17.10